Time;durP1;ratioP1;P1;durP2;ratioP2;P2;SDS_P1;SDS_P2;PMS_P1;PMS_P2;Temp;Humidity;BMP_temperature;BMP_pressure;BME280_temperature;BME280_humidity;BME280_pressure;Samples;Min_cycle;Max_cycle;Signal;HPM_P1;HPM_P2
2023/11/16 00:03:30;;;;;;;8.23;3.97;;;;;;;;;;6239148;28;20057;-96
2023/11/16 00:06:39;;;;;;;7.75;3.80;;;;;;;;;;6212501;28;20053;-96
2023/11/16 00:09:43;;;;;;;5.53;3.63;;;;;;;;;;6234686;28;20046;-96
2023/11/16 00:12:44;;;;;;;;;;;;;;;;;;6251302;28;20056;-96
2023/11/16 00:19:38;;;;;;;8.90;4.40;;;;;;;;;;6216759;28;20120;-96
2023/11/16 00:26:56;;;;;;;8.20;4.30;;;;;;;;;;6130368;28;20102;-96
2023/11/16 00:30:08;;;;;;;8.35;4.45;;;;;;;;;;6135545;28;20043;-96
2023/11/16 00:33:16;;;;;;;7.30;3.42;;;;;;;;;;6140712;28;20072;-96
2023/11/16 00:39:43;;;;;;;9.35;4.20;;;;;;;;;;6128745;28;20043;-96
2023/11/16 00:42:44;;;;;;;9.70;4.10;;;;;;;;;;6176175;28;20061;-96
2023/11/16 00:45:46;;;;;;;8.48;4.13;;;;;;;;;;6173538;28;20053;-96
2023/11/16 00:48:52;;;;;;;7.75;4.40;;;;;;;;;;6180643;28;20057;-96
2023/11/16 00:51:54;;;;;;;8.70;4.18;;;;;;;;;;6162424;28;20046;-96
2023/11/16 00:54:56;;;;;;;7.00;3.63;;;;;;;;;;6178107;28;20069;-96
2023/11/16 00:57:58;;;;;;;7.25;4.07;;;;;;;;;;6247907;28;20054;-96
2023/11/16 01:01:00;;;;;;;6.40;3.92;;;;;;;;;;6261996;28;20045;-96
2023/11/16 01:04:06;;;;;;;7.95;3.80;;;;;;;;;;6264220;28;20518;-95
2023/11/16 01:07:13;;;;;;;8.45;4.15;;;;;;;;;;6243954;28;20056;-96
2023/11/16 01:44:01;;;;;;;9.55;3.97;;;;;;;;;;6246737;28;19924;-96
2023/11/16 01:47:06;;;;;;;6.53;3.67;;;;;;;;;;6283567;28;20056;-96
2023/11/16 01:50:28;;;;;;;6.67;4.30;;;;;;;;;;6248654;28;20079;-96
2023/11/16 01:53:30;;;;;;;7.73;4.23;;;;;;;;;;6267075;28;20462;-96
2023/11/16 01:56:53;;;;;;;7.35;3.78;;;;;;;;;;6282821;28;20153;-96
2023/11/16 02:03:12;;;;;;;7.82;3.85;;;;;;;;;;6263420;28;20065;-95
2023/11/16 02:06:16;;;;;;;6.93;3.60;;;;;;;;;;6294935;28;20055;-96
2023/11/16 02:12:36;;;;;;;6.03;3.67;;;;;;;;;;6259286;28;20049;-96
2023/11/16 02:18:55;;;;;;;6.70;3.92;;;;;;;;;;6254394;28;20059;-96
2023/11/16 02:21:58;;;;;;;6.93;3.53;;;;;;;;;;6285434;28;20051;-96
2023/11/16 02:31:39;;;;;;;6.90;3.70;;;;;;;;;;6273026;28;20134;-96
2023/11/16 02:34:43;;;;;;;6.22;3.60;;;;;;;;;;6290910;28;20041;-96
2023/11/16 02:37:45;;;;;;;7.45;4.18;;;;;;;;;;6291091;28;20106;-96
2023/11/16 02:40:51;;;;;;;6.75;3.38;;;;;;;;;;6278259;28;20048;-96
2023/11/16 03:00:50;;;;;;;7.15;3.70;;;;;;;;;;6204902;28;20045;-96
2023/11/16 03:03:55;;;;;;;7.15;3.30;;;;;;;;;;6238378;28;20096;-96
2023/11/16 03:06:57;;;;;;;8.85;3.78;;;;;;;;;;6239082;28;20056;-96
2023/11/16 03:10:00;;;;;;;5.10;3.33;;;;;;;;;;6237292;28;20046;-96
2023/11/16 03:13:03;;;;;;;6.72;3.25;;;;;;;;;;6236667;28;20049;-96
2023/11/16 03:16:08;;;;;;;7.22;3.85;;;;;;;;;;6241039;28;20056;-95
2023/11/16 03:19:11;;;;;;;7.90;3.83;;;;;;;;;;6226506;28;20059;-96
2023/11/16 03:22:14;;;;;;;7.38;4.03;;;;;;;;;;6240832;28;20048;-96
2023/11/16 03:25:17;;;;;;;9.50;4.10;;;;;;;;;;6246729;28;20045;-96
2023/11/16 03:28:41;;;;;;;8.40;4.05;;;;;;;;;;6234005;28;20056;-94
2023/11/16 03:31:47;;;;;;;11.70;4.05;;;;;;;;;;6240503;28;20054;-97
2023/11/16 03:34:52;;;;;;;8.02;3.78;;;;;;;;;;6242685;28;20118;-96
2023/11/16 03:37:54;;;;;;;;;;;;;;;;;;6247187;28;20057;-96
2023/11/16 03:40:55;;;;;;;8.40;4.18;;;;;;;;;;6248834;28;20374;-96
2023/11/16 03:43:57;;;;;;;7.28;3.40;;;;;;;;;;6242488;28;20112;-95
2023/11/16 03:47:01;;;;;;;8.57;4.05;;;;;;;;;;6236826;28;20487;-96
2023/11/16 03:50:04;;;;;;;7.37;3.53;;;;;;;;;;6239520;28;20041;-96
2023/11/16 03:53:06;;;;;;;11.73;4.22;;;;;;;;;;6239372;28;20468;-96
2023/11/16 03:56:09;;;;;;;7.93;4.07;;;;;;;;;;6214015;28;20065;-96
2023/11/16 04:23:14;;;;;;;8.65;4.05;;;;;;;;;;6101611;29;20063;-96
2023/11/16 04:26:17;;;;;;;8.65;4.45;;;;;;;;;;6091927;29;20062;-96
2023/11/16 04:29:20;;;;;;;11.07;4.23;;;;;;;;;;6070530;29;20059;-96
2023/11/16 04:35:44;;;;;;;6.22;3.72;;;;;;;;;;6026059;29;20134;-96
2023/11/16 04:38:46;;;;;;;8.00;3.53;;;;;;;;;;6108390;28;20055;-96
2023/11/16 04:41:50;;;;;;;9.55;3.83;;;;;;;;;;6144962;28;20050;-96
2023/11/16 04:44:52;;;;;;;11.20;4.25;;;;;;;;;;6136948;28;20078;-95
2023/11/16 04:54:41;;;;;;;8.98;3.72;;;;;;;;;;6254457;28;20068;-96
2023/11/16 04:57:49;;;;;;;12.15;4.28;;;;;;;;;;6254306;28;20049;-95
2023/11/16 05:00:54;;;;;;;13.18;4.28;;;;;;;;;;6250900;28;20059;-94
2023/11/16 05:07:31;;;;;;;8.32;3.80;;;;;;;;;;6246831;28;20364;-96
2023/11/16 05:10:54;;;;;;;12.15;5.25;;;;;;;;;;6243285;28;20075;-96
2023/11/16 05:13:58;;;;;;;8.20;3.83;;;;;;;;;;6246429;28;20048;-96
2023/11/16 05:16:59;;;;;;;9.88;4.65;;;;;;;;;;6229249;28;20053;-96
2023/11/16 05:20:03;;;;;;;10.30;4.22;;;;;;;;;;6261910;28;20053;-96
2023/11/16 05:23:06;;;;;;;7.43;4.05;;;;;;;;;;6263251;28;20045;-96
2023/11/16 05:26:08;;;;;;;11.88;4.28;;;;;;;;;;6264945;28;20452;-96
2023/11/16 05:29:12;;;;;;;10.90;3.97;;;;;;;;;;6264624;28;20063;-96
2023/11/16 05:32:13;;;;;;;9.13;3.88;;;;;;;;;;6277201;28;20060;-96
2023/11/16 05:35:18;;;;;;;8.73;4.18;;;;;;;;;;6288456;28;20059;-96
2023/11/16 05:38:19;;;;;;;;;;;;;;;;;;6249002;28;20055;-96
2023/11/16 05:41:22;;;;;;;7.95;3.35;;;;;;;;;;6263789;28;19935;-96
2023/11/16 05:44:24;;;;;;;7.97;4.22;;;;;;;;;;6264185;28;20691;-96
2023/11/16 05:47:26;;;;;;;6.65;3.28;;;;;;;;;;6242849;28;20068;-96
2023/11/16 05:53:45;;;;;;;5.95;3.20;;;;;;;;;;6245137;28;20076;-96
2023/11/16 05:56:48;;;;;;;6.03;2.70;;;;;;;;;;6260106;28;20041;-96
2023/11/16 05:59:52;;;;;;;6.72;2.83;;;;;;;;;;6236823;28;20157;-96
2023/11/16 06:09:39;;;;;;;4.32;2.42;;;;;;;;;;6275779;28;20499;-96
2023/11/16 06:12:46;;;;;;;5.90;2.80;;;;;;;;;;6264375;28;20049;-96
2023/11/16 06:15:52;;;;;;;7.22;3.17;;;;;;;;;;6260329;28;20059;-96
2023/11/16 06:18:59;;;;;;;11.15;3.25;;;;;;;;;;6252305;28;20052;-96
2023/11/16 06:25:46;;;;;;;9.35;3.40;;;;;;;;;;6272536;28;20072;-96
2023/11/16 06:28:51;;;;;;;6.45;3.20;;;;;;;;;;6275247;28;20057;-96
2023/11/16 06:31:54;;;;;;;4.93;2.90;;;;;;;;;;6275544;28;20047;-96
2023/11/16 06:34:55;;;;;;;7.50;3.58;;;;;;;;;;6292453;28;20044;-96
2023/11/16 06:41:38;;;;;;;7.90;3.83;;;;;;;;;;6213318;28;20049;-96
2023/11/16 06:44:52;;;;;;;7.07;3.30;;;;;;;;;;6293115;28;20051;-96
2023/11/16 06:47:55;;;;;;;8.13;3.67;;;;;;;;;;6293705;28;20110;-96
2023/11/16 06:51:17;;;;;;;12.68;3.97;;;;;;;;;;6277284;28;20790;-96
2023/11/16 06:54:21;;;;;;;11.00;3.97;;;;;;;;;;6288910;28;20129;-96
2023/11/16 06:57:26;;;;;;;10.27;3.92;;;;;;;;;;6289007;28;20040;-96
2023/11/16 07:00:30;;;;;;;8.77;4.00;;;;;;;;;;6293651;28;20053;-96
2023/11/16 07:03:33;;;;;;;8.23;4.35;;;;;;;;;;6265401;28;20055;-96
2023/11/16 07:06:37;;;;;;;6.97;3.90;;;;;;;;;;6234344;28;20057;-96
2023/11/16 07:09:45;;;;;;;6.53;4.07;;;;;;;;;;6239328;28;20069;-96
2023/11/16 07:12:47;;;;;;;9.20;4.60;;;;;;;;;;6253978;28;20051;-96
2023/11/16 07:15:49;;;;;;;9.80;4.70;;;;;;;;;;6258493;28;20045;-96
2023/11/16 07:18:52;;;;;;;7.72;3.72;;;;;;;;;;6260560;28;20049;-96
2023/11/16 07:21:59;;;;;;;9.45;4.15;;;;;;;;;;6262698;28;20052;-96
2023/11/16 07:25:27;;;;;;;9.27;4.13;;;;;;;;;;6248078;28;20052;-96
2023/11/16 07:28:32;;;;;;;12.68;4.60;;;;;;;;;;6086070;29;20052;-96
2023/11/16 07:31:44;;;;;;;14.57;4.90;;;;;;;;;;6250108;28;20059;-96
2023/11/16 07:34:46;;;;;;;10.38;4.93;;;;;;;;;;6260487;28;20049;-96
2023/11/16 07:37:48;;;;;;;10.38;5.07;;;;;;;;;;6291429;28;20531;-96
2023/11/16 07:40:52;;;;;;;9.80;3.78;;;;;;;;;;6282060;28;20407;-95
2023/11/16 07:43:56;;;;;;;7.18;4.43;;;;;;;;;;6276899;28;20067;-96
2023/11/16 07:47:18;;;;;;;9.93;4.05;;;;;;;;;;6194943;28;20050;-96
2023/11/16 07:50:20;;;;;;;8.75;3.60;;;;;;;;;;6245733;28;20511;-96
2023/11/16 07:53:27;;;;;;;7.13;3.90;;;;;;;;;;6275551;28;20134;-96
2023/11/16 07:59:47;;;;;;;7.80;4.00;;;;;;;;;;6259119;28;20060;-96
2023/11/16 08:16:04;;;;;;;4.95;2.35;;;;;;;;;;6241647;28;20053;-96
2023/11/16 08:19:31;;;;;;;4.03;1.80;;;;;;;;;;6231212;28;20049;-96
2023/11/16 08:22:53;;;;;;;3.95;2.17;;;;;;;;;;6150729;28;20046;-94
2023/11/16 08:36:42;;;;;;;6.38;3.63;;;;;;;;;;6139750;29;20430;-95
2023/11/16 08:39:45;;;;;;;7.50;3.33;;;;;;;;;;6145229;28;20050;-96
2023/11/16 08:42:50;;;;;;;6.38;3.50;;;;;;;;;;6192561;28;20042;-96
2023/11/16 08:49:15;;;;;;;6.85;3.30;;;;;;;;;;6182528;28;20134;-96
2023/11/16 08:52:23;;;;;;;5.40;2.90;;;;;;;;;;6182516;28;20073;-96
2023/11/16 08:55:48;;;;;;;8.13;3.22;;;;;;;;;;6182759;28;20061;-96
2023/11/16 08:58:52;;;;;;;12.52;3.58;;;;;;;;;;6167029;28;20050;-95
2023/11/16 09:05:15;;;;;;;4.72;2.85;;;;;;;;;;6166970;28;20090;-96
2023/11/16 09:08:19;;;;;;;10.32;3.95;;;;;;;;;;6174872;28;20042;-96
2023/11/16 09:11:22;;;;;;;9.50;3.85;;;;;;;;;;6266860;28;20143;-96
2023/11/16 09:14:25;;;;;;;7.63;3.30;;;;;;;;;;6279505;28;20049;-96
2023/11/16 09:17:29;;;;;;;6.63;3.60;;;;;;;;;;6273139;28;20479;-96
2023/11/16 09:20:31;;;;;;;;;;;;;;;;;;6285794;28;20057;-96
2023/11/16 09:23:34;;;;;;;9.40;4.03;;;;;;;;;;6263551;28;19931;-96
2023/11/16 09:33:12;;;;;;;8.05;4.22;;;;;;;;;;6248254;28;20043;-96
2023/11/16 09:36:22;;;;;;;8.02;4.50;;;;;;;;;;6265328;28;20052;-96
2023/11/16 09:39:44;;;;;;;8.13;4.93;;;;;;;;;;6258315;28;20045;-96
2023/11/16 09:42:48;;;;;;;8.05;4.55;;;;;;;;;;6264862;28;20045;-96
2023/11/16 09:45:54;;;;;;;8.55;4.45;;;;;;;;;;6261238;28;20053;-95
2023/11/16 09:48:58;;;;;;;10.55;4.78;;;;;;;;;;6274395;28;20487;-96
2023/11/16 09:52:00;;;;;;;9.60;5.22;;;;;;;;;;6287020;28;20122;-96
2023/11/16 09:55:05;;;;;;;8.55;4.75;;;;;;;;;;6253014;28;20055;-96
2023/11/16 09:58:09;;;;;;;8.32;4.50;;;;;;;;;;6272706;28;20044;-94
2023/11/16 10:01:32;;;;;;;8.65;4.55;;;;;;;;;;6291339;28;20036;-95
2023/11/16 10:04:41;;;;;;;11.65;5.30;;;;;;;;;;6268646;28;20053;-96
2023/11/16 10:08:01;;;;;;;10.10;4.63;;;;;;;;;;6271333;28;20041;-96
2023/11/16 10:11:05;;;;;;;11.95;5.13;;;;;;;;;;6283020;28;20049;-95
2023/11/16 10:14:08;;;;;;;7.95;4.55;;;;;;;;;;6265672;28;20060;-96
2023/11/16 10:17:15;;;;;;;7.95;4.38;;;;;;;;;;6232319;28;20037;-96
2023/11/16 10:20:20;;;;;;;8.25;4.35;;;;;;;;;;6326331;22;20092;-92
2023/11/16 10:23:24;;;;;;;8.80;4.50;;;;;;;;;;6280314;28;20060;-87
2023/11/16 10:26:27;;;;;;;;;;;;;;;;;;6270361;28;20076;-93
2023/11/16 10:29:29;;;;;;;9.60;4.50;;;;;;;;;;6267501;28;19959;-94
2023/11/16 10:32:33;;;;;;;11.30;5.18;;;;;;;;;;6262641;28;20054;-92
2023/11/16 10:35:40;;;;;;;12.90;5.55;;;;;;;;;;6261415;28;20117;-91
2023/11/16 10:38:45;;;;;;;61.38;31.75;;;;;;;;;;6273478;28;20049;-91
2023/11/16 10:41:47;;;;;;;56.13;30.48;;;;;;;;;;6272257;28;20049;-89
2023/11/16 10:44:50;;;;;;;29.55;16.17;;;;;;;;;;6266151;28;20507;-90
2023/11/16 10:47:51;;;;;;;9.70;5.65;;;;;;;;;;6264967;28;20053;-92
2023/11/16 10:50:59;;;;;;;9.43;4.38;;;;;;;;;;6266364;28;20260;-93
2023/11/16 10:54:06;;;;;;;7.90;4.40;;;;;;;;;;6263511;28;20384;-93
2023/11/16 10:57:09;;;;;;;9.82;4.55;;;;;;;;;;6260952;28;20120;-91
2023/11/16 11:00:16;;;;;;;11.23;4.68;;;;;;;;;;6240289;28;20107;-92
2023/11/16 11:03:19;;;;;;;10.43;5.22;;;;;;;;;;6236307;28;20061;-93
2023/11/16 11:06:25;;;;;;;9.35;5.38;;;;;;;;;;6239121;28;20057;-93
2023/11/16 11:09:42;;;;;;;7.32;4.43;;;;;;;;;;6244901;28;20526;-93
2023/11/16 11:12:45;;;;;;;6.93;4.78;;;;;;;;;;6236709;28;20093;-92
2023/11/16 11:15:48;;;;;;;;;;;;;;;;;;6250398;28;20254;-90
2023/11/16 11:18:51;;;;;;;5.53;3.63;;;;;;;;;;6243329;28;19925;-92
2023/11/16 11:22:00;;;;;;;8.10;4.43;;;;;;;;;;6245683;28;20041;-92
2023/11/16 11:25:05;;;;;;;7.85;4.20;;;;;;;;;;6236709;28;20719;-92
2023/11/16 11:28:08;;;;;;;9.63;5.07;;;;;;;;;;6243160;28;20061;-94
2023/11/16 11:31:27;;;;;;;7.07;4.47;;;;;;;;;;6248178;28;20361;-92
2023/11/16 11:34:30;;;;;;;8.85;4.72;;;;;;;;;;6214045;28;20050;-90
2023/11/16 11:37:37;;;;;;;10.00;5.00;;;;;;;;;;6243551;28;20064;-94
2023/11/16 11:40:39;;;;;;;8.60;5.28;;;;;;;;;;6244489;28;20426;-87
2023/11/16 11:43:42;;;;;;;12.40;5.43;;;;;;;;;;6251438;28;20049;-88
2023/11/16 11:46:57;;;;;;;9.50;5.20;;;;;;;;;;6251981;28;20099;-86
2023/11/16 11:50:02;;;;;;;9.38;5.20;;;;;;;;;;6221044;28;20341;-88
2023/11/16 11:53:12;;;;;;;8.70;5.20;;;;;;;;;;6262749;28;20065;-89
2023/11/16 11:56:15;;;;;;;8.35;4.93;;;;;;;;;;6246899;28;20057;-92
2023/11/16 11:59:20;;;;;;;7.85;5.40;;;;;;;;;;6247837;28;20068;-91
2023/11/16 12:02:25;;;;;;;7.32;5.15;;;;;;;;;;6247457;28;20061;-92
2023/11/16 12:05:27;;;;;;;7.57;4.72;;;;;;;;;;6246013;28;20057;-92
2023/11/16 12:08:46;;;;;;;10.73;4.93;;;;;;;;;;6245057;28;20052;-94
2023/11/16 12:11:47;;;;;;;6.85;4.80;;;;;;;;;;6254505;28;20052;-87
2023/11/16 12:14:49;;;;;;;6.88;4.53;;;;;;;;;;6261445;28;20109;-85
2023/11/16 12:17:51;;;;;;;8.05;5.68;;;;;;;;;;6262861;28;20063;-88
2023/11/16 12:20:54;;;;;;;13.50;6.40;;;;;;;;;;6262852;28;20041;-85
2023/11/16 12:23:57;;;;;;;12.52;6.80;;;;;;;;;;6264768;28;20056;-86
2023/11/16 12:27:19;;;;;;;26.48;14.38;;;;;;;;;;6237890;28;20045;-85
2023/11/16 12:30:21;;;;;;;86.50;40.65;;;;;;;;;;6248085;28;20057;-87
2023/11/16 12:33:23;;;;;;;18.00;10.40;;;;;;;;;;6262824;28;20038;-86
2023/11/16 12:36:35;;;;;;;12.75;8.60;;;;;;;;;;6264039;28;20053;-87
2023/11/16 12:39:39;;;;;;;14.52;8.32;;;;;;;;;;6356985;23;20107;-84
2023/11/16 12:42:40;;;;;;;15.68;9.35;;;;;;;;;;6357975;28;20036;-86
2023/11/16 12:45:45;;;;;;;24.73;12.98;;;;;;;;;;6357757;28;20319;-84
2023/11/16 12:48:47;;;;;;;26.63;14.23;;;;;;;;;;6347337;28;20044;-85
2023/11/16 12:51:52;;;;;;;28.85;15.80;;;;;;;;;;6353771;28;20032;-84
2023/11/16 12:55:04;;;;;;;31.08;17.25;;;;;;;;;;6351557;28;20041;-85
2023/11/16 12:58:06;;;;;;;32.03;16.33;;;;;;;;;;6342074;28;20053;-85
2023/11/16 13:01:18;;;;;;;28.15;16.85;;;;;;;;;;6308644;28;20093;-85
2023/11/16 13:04:38;;;;;;;29.92;16.98;;;;;;;;;;6317483;28;20070;-85
2023/11/16 13:07:46;;;;;;;32.30;17.02;;;;;;;;;;6319101;28;20036;-85
2023/11/16 13:10:50;;;;;;;30.73;17.55;;;;;;;;;;6319333;28;20106;-84
2023/11/16 13:13:52;;;;;;;33.35;17.80;;;;;;;;;;6311022;28;20096;-84
2023/11/16 13:17:04;;;;;;;27.95;16.67;;;;;;;;;;6315969;28;20108;-87
2023/11/16 13:20:30;;;;;;;30.77;17.80;;;;;;;;;;6301476;28;20041;-83
2023/11/16 13:23:47;;;;;;;32.53;18.20;;;;;;;;;;6279360;28;20089;-85
2023/11/16 13:26:58;;;;;;;32.15;17.90;;;;;;;;;;6275145;28;20038;-84
2023/11/16 13:30:03;;;;;;;34.75;19.02;;;;;;;;;;6447733;22;20068;-96
2023/11/16 13:33:05;;;;;;;33.15;19.33;;;;;;;;;;6295071;28;20086;-93
2023/11/16 13:36:08;;;;;;;31.65;18.65;;;;;;;;;;6295340;28;20130;-95
2023/11/16 13:39:14;;;;;;;31.13;18.50;;;;;;;;;;6278704;28;20533;-91
2023/11/16 13:42:17;;;;;;;33.83;18.77;;;;;;;;;;6280757;28;20048;-95
2023/11/16 13:45:20;;;;;;;30.40;19.25;;;;;;;;;;6266411;28;20055;-96
2023/11/16 13:48:24;;;;;;;33.88;20.05;;;;;;;;;;6263967;28;20057;-95
2023/11/16 13:51:45;;;;;;;32.10;19.02;;;;;;;;;;6266845;28;20205;-96
2023/11/16 13:54:48;;;;;;;38.47;21.77;;;;;;;;;;6263209;28;20052;-96
2023/11/16 14:01:55;;;;;;;38.28;21.85;;;;;;;;;;6100923;29;20054;-95
2023/11/16 14:04:56;;;;;;;35.22;21.58;;;;;;;;;;6060698;29;20070;-96
2023/11/16 14:07:59;;;;;;;36.90;22.40;;;;;;;;;;6122291;29;20148;-95
2023/11/16 14:11:01;;;;;;;34.67;20.38;;;;;;;;;;6095676;29;20135;-96
2023/11/16 14:14:05;;;;;;;35.30;21.60;;;;;;;;;;6109280;29;20055;-96
2023/11/16 14:20:24;;;;;;;35.13;20.50;;;;;;;;;;6081349;29;20099;-96
2023/11/16 14:23:27;;;;;;;36.45;21.10;;;;;;;;;;6099329;29;20055;-95
2023/11/16 14:26:30;;;;;;;32.63;20.80;;;;;;;;;;6100135;29;20107;-96
2023/11/16 14:29:34;;;;;;;38.78;21.55;;;;;;;;;;6107695;29;20059;-95
2023/11/16 14:36:13;;;;;;;35.78;21.70;;;;;;;;;;6172761;28;20395;-96
2023/11/16 14:39:15;;;;;;;34.55;20.95;;;;;;;;;;6258889;28;20172;-96
2023/11/16 14:42:17;;;;;;;37.08;20.88;;;;;;;;;;6244977;28;20045;-96
2023/11/16 14:45:19;;;;;;;35.17;21.45;;;;;;;;;;6239380;28;20052;-96
2023/11/16 14:48:23;;;;;;;37.22;20.85;;;;;;;;;;6242954;28;20056;-96
2023/11/16 14:51:25;;;;;;;;;;;;;;;;;;6250261;28;20052;-96
2023/11/16 14:54:27;;;;;;;39.53;20.08;;;;;;;;;;6276028;28;19932;-96
2023/11/16 14:57:32;;;;;;;36.28;21.42;;;;;;;;;;6269047;28;20518;-96
2023/11/16 15:00:35;;;;;;;34.83;21.50;;;;;;;;;;6271061;28;20052;-96
2023/11/16 15:03:41;;;;;;;40.55;22.85;;;;;;;;;;6269624;28;20056;-96
2023/11/16 15:06:43;;;;;;;36.15;21.73;;;;;;;;;;6267366;28;20502;-96
2023/11/16 15:09:55;;;;;;;40.85;23.25;;;;;;;;;;6274985;28;20060;-96
2023/11/16 15:13:01;;;;;;;41.23;23.10;;;;;;;;;;6271481;28;20040;-96
2023/11/16 15:16:27;;;;;;;40.47;22.48;;;;;;;;;;6271126;28;20248;-96
2023/11/16 15:22:53;;;;;;;36.83;21.95;;;;;;;;;;6280989;28;20376;-96
2023/11/16 15:25:56;;;;;;;41.72;21.98;;;;;;;;;;6281859;28;20059;-96
2023/11/16 15:29:09;;;;;;;37.30;21.42;;;;;;;;;;6280103;28;20077;-97
2023/11/16 15:32:31;;;;;;;32.50;20.00;;;;;;;;;;6192254;28;20050;-95
2023/11/16 15:35:54;;;;;;;83.10;47.40;;;;;;;;;;6247215;28;20049;-94
2023/11/16 15:39:01;;;;;;;96.32;47.28;;;;;;;;;;6242167;28;20096;-94
2023/11/16 15:42:04;;;;;;;68.32;37.13;;;;;;;;;;6244613;28;20057;-94
2023/11/16 15:45:13;;;;;;;60.65;33.55;;;;;;;;;;6253121;28;20049;-96
2023/11/16 15:48:41;;;;;;;38.72;22.50;;;;;;;;;;6237892;28;20119;-95
2023/11/16 15:51:46;;;;;;;37.53;21.42;;;;;;;;;;6253126;28;20495;-96
2023/11/16 15:54:50;;;;;;;36.92;21.88;;;;;;;;;;6244915;28;20077;-96
2023/11/16 15:58:06;;;;;;;40.08;22.00;;;;;;;;;;6255489;28;20045;-96
2023/11/16 16:04:26;;;;;;;39.38;21.35;;;;;;;;;;6235558;28;20096;-96
2023/11/16 16:11:10;;;;;;;37.50;21.02;;;;;;;;;;6224073;28;20061;-95
2023/11/16 16:14:13;;;;;;;37.47;21.65;;;;;;;;;;6198563;28;20069;-95
2023/11/16 16:17:17;;;;;;;35.13;20.27;;;;;;;;;;6248936;28;20068;-94
2023/11/16 16:20:19;;;;;;;38.45;21.33;;;;;;;;;;6217766;28;20063;-96
2023/11/16 16:23:23;;;;;;;36.70;20.98;;;;;;;;;;6219891;28;20052;-96
2023/11/16 16:26:26;;;;;;;33.72;20.67;;;;;;;;;;6254284;28;20163;-96
2023/11/16 16:29:30;;;;;;;36.15;20.08;;;;;;;;;;6246874;28;20052;-96
2023/11/16 16:32:35;;;;;;;37.80;20.40;;;;;;;;;;6265411;28;20049;-96
2023/11/16 16:35:42;;;;;;;37.92;21.15;;;;;;;;;;6288350;28;20479;-96
2023/11/16 16:38:46;;;;;;;38.63;21.33;;;;;;;;;;6269739;28;20933;-93
2023/11/16 16:41:54;;;;;;;37.55;21.30;;;;;;;;;;6271614;28;20048;-96
2023/11/16 16:45:03;;;;;;;38.60;21.27;;;;;;;;;;6259033;28;20049;-96
2023/11/16 16:48:11;;;;;;;37.35;20.85;;;;;;;;;;6242666;28;20040;-96
2023/11/16 16:51:18;;;;;;;39.53;22.55;;;;;;;;;;6279419;28;20048;-96
2023/11/16 16:54:22;;;;;;;35.75;20.83;;;;;;;;;;6261866;28;20041;-96
2023/11/16 16:57:28;;;;;;;34.22;21.38;;;;;;;;;;6272956;28;20040;-96
2023/11/16 17:00:31;;;;;;;36.90;20.30;;;;;;;;;;6262063;28;20036;-94
2023/11/16 17:03:36;;;;;;;36.22;20.73;;;;;;;;;;6292797;28;20056;-96
2023/11/16 17:06:39;;;;;;;38.75;22.13;;;;;;;;;;6273941;28;20098;-96
2023/11/16 17:13:00;;;;;;;43.63;20.08;;;;;;;;;;6274809;28;20111;-96
2023/11/16 17:16:04;;;;;;;31.98;19.15;;;;;;;;;;6278769;28;20635;-96
2023/11/16 17:19:08;;;;;;;31.73;19.00;;;;;;;;;;6274649;28;20041;-96
2023/11/16 17:22:12;;;;;;;;;;;;;;;;;;6268737;28;20046;-96
2023/11/16 17:25:17;;;;;;;30.33;18.38;;;;;;;;;;6269236;28;19928;-94
2023/11/16 17:28:21;;;;;;;37.85;19.52;;;;;;;;;;6273391;28;20049;-96
2023/11/16 17:31:24;;;;;;;33.97;18.50;;;;;;;;;;6271999;28;20182;-96
2023/11/16 17:34:35;;;;;;;33.40;18.65;;;;;;;;;;6267262;28;20459;-96
2023/11/16 17:37:43;;;;;;;28.38;16.77;;;;;;;;;;6279163;28;20041;-96
2023/11/16 17:41:05;;;;;;;29.85;17.48;;;;;;;;;;6267259;28;20056;-96
2023/11/16 17:47:42;;;;;;;31.25;17.83;;;;;;;;;;6258256;28;20041;-97
2023/11/16 17:50:47;;;;;;;34.60;17.90;;;;;;;;;;6259853;28;20055;-96
2023/11/16 17:53:50;;;;;;;;;;;;;;;;;;6274376;28;20458;-96
2023/11/16 18:03:35;;;;;;;30.42;17.20;;;;;;;;;;6281945;28;20086;-95
2023/11/16 18:06:37;;;;;;;41.50;19.08;;;;;;;;;;6270124;28;20052;-96
2023/11/16 18:09:41;;;;;;;37.97;19.38;;;;;;;;;;6273927;28;20143;-96
2023/11/16 18:12:53;;;;;;;37.45;19.98;;;;;;;;;;6270234;28;20052;-96
2023/11/16 18:23:05;;;;;;;39.13;22.90;;;;;;;;;;6175940;28;20062;-96
2023/11/16 18:26:11;;;;;;;43.08;24.40;;;;;;;;;;6224309;28;20075;-96
2023/11/16 18:33:00;;;;;;;43.97;23.83;;;;;;;;;;6258269;28;20033;-95
2023/11/16 18:39:21;;;;;;;41.28;22.27;;;;;;;;;;6231582;28;20041;-96
2023/11/16 18:42:25;;;;;;;43.15;22.17;;;;;;;;;;6237423;28;20037;-96
2023/11/16 18:48:48;;;;;;;40.03;21.52;;;;;;;;;;6206427;28;20046;-96
2023/11/16 18:51:54;;;;;;;37.03;22.20;;;;;;;;;;6235826;28;20139;-95
2023/11/16 18:54:57;;;;;;;40.95;22.02;;;;;;;;;;6265537;28;20120;-96
2023/11/16 18:58:00;;;;;;;41.90;21.90;;;;;;;;;;6233688;28;20045;-93
2023/11/16 19:07:40;;;;;;;37.58;21.27;;;;;;;;;;6256471;28;20075;-96
2023/11/16 19:10:42;;;;;;;41.13;23.45;;;;;;;;;;6274793;28;20049;-96
2023/11/16 19:13:47;;;;;;;44.40;24.08;;;;;;;;;;6273620;28;20057;-96
2023/11/16 19:16:50;;;;;;;40.85;23.17;;;;;;;;;;6259288;28;20057;-96
2023/11/16 19:19:56;;;;;;;36.28;21.73;;;;;;;;;;6256325;28;20479;-96
2023/11/16 19:23:03;;;;;;;37.88;21.75;;;;;;;;;;6268162;28;20049;-96
2023/11/16 19:26:06;;;;;;;37.95;21.98;;;;;;;;;;6278903;28;20044;-96
2023/11/16 19:29:10;;;;;;;44.38;22.45;;;;;;;;;;6265753;28;20055;-94
2023/11/16 19:38:51;;;;;;;42.67;22.67;;;;;;;;;;6244560;28;20038;-96
2023/11/16 19:49:01;;;;;;;42.08;24.95;;;;;;;;;;6240382;28;20049;-96
2023/11/16 19:59:05;;;;;;;38.45;21.85;;;;;;;;;;6227166;28;20095;-96
2023/11/16 20:02:10;;;;;;;37.25;20.65;;;;;;;;;;6246057;28;20049;-93
2023/11/16 20:08:38;;;;;;;41.72;21.10;;;;;;;;;;6206187;28;20140;-96
2023/11/16 20:14:58;;;;;;;33.17;20.10;;;;;;;;;;6282290;28;20049;-96
2023/11/16 20:18:19;;;;;;;38.90;18.90;;;;;;;;;;6272655;28;20048;-96
2023/11/16 20:24:47;;;;;;;32.20;16.50;;;;;;;;;;6224748;28;20050;-96
2023/11/16 20:27:52;;;;;;;32.33;18.13;;;;;;;;;;6265083;28;20059;-96
2023/11/16 20:31:03;;;;;;;31.48;18.05;;;;;;;;;;6281647;28;20060;-96
2023/11/16 20:34:20;;;;;;;31.75;17.25;;;;;;;;;;6224231;28;20041;-96
2023/11/16 20:40:57;;;;;;;27.88;17.02;;;;;;;;;;6245735;28;20041;-96
2023/11/16 20:44:01;;;;;;;;;;;;;;;;;;6252338;28;20068;-95
2023/11/16 20:47:06;;;;;;;31.63;16.23;;;;;;;;;;6236831;28;20005;-94
2023/11/16 20:50:14;;;;;;;30.85;17.15;;;;;;;;;;6254203;28;20056;-96
2023/11/16 20:53:19;;;;;;;30.80;17.60;;;;;;;;;;6242041;28;20142;-96
2023/11/16 20:56:24;;;;;;;33.58;18.80;;;;;;;;;;6239873;28;20064;-96
2023/11/16 20:59:26;;;;;;;38.42;20.33;;;;;;;;;;6223081;28;20108;-96
2023/11/16 21:02:31;;;;;;;34.70;20.33;;;;;;;;;;6224606;28;20064;-96
2023/11/16 21:05:34;;;;;;;37.45;20.52;;;;;;;;;;6228700;28;20053;-96
2023/11/16 21:12:20;;;;;;;42.95;24.63;;;;;;;;;;6181664;28;20499;-96
2023/11/16 21:15:24;;;;;;;43.20;22.25;;;;;;;;;;6210218;28;20037;-96
2023/11/16 21:18:27;;;;;;;;;;;;;;;;;;6204306;28;20046;-96
2023/11/16 21:21:35;;;;;;;38.60;22.57;;;;;;;;;;6226431;28;20080;-96
2023/11/16 21:31:51;;;;;;;46.72;23.75;;;;;;;;;;6204747;28;20072;-96
2023/11/16 21:34:55;;;;;;;41.72;22.75;;;;;;;;;;6233003;28;20049;-96
2023/11/16 21:38:02;;;;;;;42.10;23.38;;;;;;;;;;6252414;28;21375;-96
2023/11/16 21:44:34;;;;;;;42.70;23.58;;;;;;;;;;6316939;27;2277885;-83
2023/11/16 21:47:45;;;;;;;47.22;24.80;;;;;;;;;;6358517;27;20052;-83
2023/11/16 21:50:54;;;;;;;39.40;22.00;;;;;;;;;;6362180;27;20065;-83
2023/11/16 21:53:56;;;;;;;47.38;23.88;;;;;;;;;;6356508;28;20102;-83
2023/11/16 22:00:26;;;;;;;39.30;21.42;;;;;;;;;;6267181;28;20049;-96
2023/11/16 22:03:46;;;;;;;41.22;22.42;;;;;;;;;;6264286;28;20058;-96
2023/11/16 22:07:11;;;;;;;42.03;20.95;;;;;;;;;;6276707;28;20052;-96
2023/11/16 22:10:18;;;;;;;41.38;21.38;;;;;;;;;;6281087;28;20045;-96
2023/11/16 22:13:21;;;;;;;39.22;21.77;;;;;;;;;;6261060;28;20048;-96
2023/11/16 22:16:25;;;;;;;38.25;21.27;;;;;;;;;;6274946;28;20036;-96
2023/11/16 22:19:44;;;;;;;41.30;21.33;;;;;;;;;;6289393;28;20043;-95
2023/11/16 22:22:51;;;;;;;40.33;22.80;;;;;;;;;;6318157;28;20039;-96
2023/11/16 22:47:20;;;;;;;42.08;23.65;;;;;;;;;;6197547;28;20335;-96
2023/11/16 22:57:48;;;;;;;43.85;23.42;;;;;;;;;;6252437;28;20046;-94
2023/11/16 23:00:50;;;;;;;86.03;42.20;;;;;;;;;;6249113;28;20055;-96
2023/11/16 23:03:53;;;;;;;179.27;83.32;;;;;;;;;;6248758;28;20045;-96
2023/11/16 23:06:56;;;;;;;101.05;49.78;;;;;;;;;;6251016;28;20139;-96
2023/11/16 23:10:00;;;;;;;70.90;36.80;;;;;;;;;;6259053;28;20049;-96
2023/11/16 23:13:03;;;;;;;;;;;;;;;;;;6256737;28;20045;-96
2023/11/16 23:19:34;;;;;;;51.10;26.52;;;;;;;;;;6730814;22;20030;-85
2023/11/16 23:22:44;;;;;;;39.58;22.73;;;;;;;;;;6306659;28;20112;-85
2023/11/16 23:26:01;;;;;;;44.00;22.98;;;;;;;;;;6312438;28;20116;-85
2023/11/16 23:29:08;;;;;;;38.65;22.48;;;;;;;;;;6326437;28;20028;-85
2023/11/16 23:32:14;;;;;;;42.38;22.35;;;;;;;;;;6299660;28;20044;-85
2023/11/16 23:35:19;;;;;;;42.63;23.90;;;;;;;;;;6329774;28;20044;-85
2023/11/16 23:38:30;;;;;;;39.88;24.10;;;;;;;;;;6328115;28;20097;-86
2023/11/16 23:41:47;;;;;;;40.63;21.95;;;;;;;;;;6290860;28;20123;-85